Portada
METAR-TAF:

METAR-TAF

Aeroports :

Aeroport Internacional de Tunis

Tunis, Tunísia

latitud: 36-50N, longitud: 010-14E, altitud: 3 m

Observació

L'informe es va fer fa 32 minuts, a les 16:30 UTC
Vent 2 kt amb direcció variable
Temperatura 15°C
Humitat 67%
Pressió 1018 hPa
Visibilitat 10 km o més
Núvols disperses a una alçada de 2600 ft
Núvols disperses a una alçada de 3600 ft

METAR: DTTA 121630Z VRB02KT 9999 SCT026 SCT036 15/09 Q1018 NOSIG

Hora: 18:02 (17:02 UTC)

Pronòstic

L'informe es va fer fa 6 hores i 2 minuts, a les 11:00 UTC
Pronòstic vàlid del 12 a les 12 UTC al 13 a les 12 UTC
Vent 10 kt del Sud/Sud-Oest
Visibilitat 10 km o més
Núvols disperses a una alçada de 2300 ft
Evolucionant progressivament
l' 12 a les 16 UTC al 12 a les 18 UTC
Vent 15 kt del Oest

TAF: DTTA 121100Z 1212/1312 21010KT 9999 SCT023 BECMG 1216/1218 27015KT

Observacions i pronòstics meteorològics de més de 4000 aeroports (METAR i TAF).

Les estacions disponibles són els punts grocs i vermells al mapa.

Posi el ratolí al punt desitjat per veure el nom de l'estació.

Feu clic per veure les observacions i els pronòstics meteorològics.

Per canviar el mapa: feu clic els botons verds amb una creu de color negre per apropar; al botó verd amb un guió per allunyar la imatge; o en les fletxes verdes per a mapes adjacents.


METAR-TAF: